sensor_id;sensor_type;location;lat;lon;timestamp;P1;durP1;ratioP1;P2;durP2;ratioP2
8584;SDS011;7180;52.742;11.420;2024-03-08T00:01:54;9.97;;;9.17;;
8584;SDS011;7180;52.742;11.420;2024-03-08T00:04:20;11.13;;;10.00;;
8584;SDS011;7180;52.742;11.420;2024-03-08T00:06:45;10.17;;;9.40;;
8584;SDS011;7180;52.742;11.420;2024-03-08T00:09:11;10.53;;;9.67;;
8584;SDS011;7180;52.742;11.420;2024-03-08T00:11:37;10.37;;;9.57;;
8584;SDS011;7180;52.742;11.420;2024-03-08T00:14:02;9.50;;;9.00;;
8584;SDS011;7180;52.742;11.420;2024-03-08T00:16:27;10.33;;;9.63;;
8584;SDS011;7180;52.742;11.420;2024-03-08T00:18:52;9.63;;;9.03;;
8584;SDS011;7180;52.742;11.420;2024-03-08T00:21:18;10.40;;;9.57;;
8584;SDS011;7180;52.742;11.420;2024-03-08T00:23:43;10.37;;;9.67;;
8584;SDS011;7180;52.742;11.420;2024-03-08T00:26:08;10.27;;;9.63;;
8584;SDS011;7180;52.742;11.420;2024-03-08T00:28:34;11.30;;;10.30;;
8584;SDS011;7180;52.742;11.420;2024-03-08T00:31:00;9.90;;;9.27;;
8584;SDS011;7180;52.742;11.420;2024-03-08T00:33:25;9.57;;;8.97;;
8584;SDS011;7180;52.742;11.420;2024-03-08T00:35:52;10.77;;;10.07;;
8584;SDS011;7180;52.742;11.420;2024-03-08T00:38:17;10.47;;;9.67;;
8584;SDS011;7180;52.742;11.420;2024-03-08T00:40:43;10.17;;;9.33;;
8584;SDS011;7180;52.742;11.420;2024-03-08T00:43:09;9.70;;;9.07;;
8584;SDS011;7180;52.742;11.420;2024-03-08T00:45:34;9.70;;;9.03;;
8584;SDS011;7180;52.742;11.420;2024-03-08T00:47:59;10.47;;;9.77;;
8584;SDS011;7180;52.742;11.420;2024-03-08T00:50:25;10.27;;;9.67;;
8584;SDS011;7180;52.742;11.420;2024-03-08T00:52:50;10.53;;;9.77;;
8584;SDS011;7180;52.742;11.420;2024-03-08T00:55:15;10.80;;;9.90;;
8584;SDS011;7180;52.742;11.420;2024-03-08T00:57:41;11.87;;;10.73;;
8584;SDS011;7180;52.742;11.420;2024-03-08T01:00:07;10.37;;;9.57;;
8584;SDS011;7180;52.742;11.420;2024-03-08T01:02:36;10.50;;;9.70;;
8584;SDS011;7180;52.742;11.420;2024-03-08T01:05:02;9.73;;;9.13;;
8584;SDS011;7180;52.742;11.420;2024-03-08T01:07:29;10.30;;;9.60;;
8584;SDS011;7180;52.742;11.420;2024-03-08T01:09:54;10.23;;;9.43;;
8584;SDS011;7180;52.742;11.420;2024-03-08T01:12:19;10.70;;;9.77;;
8584;SDS011;7180;52.742;11.420;2024-03-08T01:14:45;10.97;;;9.73;;
8584;SDS011;7180;52.742;11.420;2024-03-08T01:17:10;10.70;;;9.60;;
8584;SDS011;7180;52.742;11.420;2024-03-08T01:19:36;10.33;;;9.50;;
8584;SDS011;7180;52.742;11.420;2024-03-08T01:22:02;10.57;;;9.70;;
8584;SDS011;7180;52.742;11.420;2024-03-08T01:24:28;10.33;;;9.53;;
8584;SDS011;7180;52.742;11.420;2024-03-08T01:26:53;9.77;;;9.17;;
8584;SDS011;7180;52.742;11.420;2024-03-08T01:29:19;10.13;;;9.40;;
8584;SDS011;7180;52.742;11.420;2024-03-08T01:31:44;10.07;;;9.37;;
8584;SDS011;7180;52.742;11.420;2024-03-08T01:34:09;10.33;;;9.53;;
8584;SDS011;7180;52.742;11.420;2024-03-08T01:36:35;10.40;;;9.70;;
8584;SDS011;7180;52.742;11.420;2024-03-08T01:39:02;9.70;;;9.10;;
8584;SDS011;7180;52.742;11.420;2024-03-08T01:41:32;9.90;;;9.20;;
8584;SDS011;7180;52.742;11.420;2024-03-08T01:43:58;11.27;;;10.40;;
8584;SDS011;7180;52.742;11.420;2024-03-08T01:46:24;11.33;;;10.53;;
8584;SDS011;7180;52.742;11.420;2024-03-08T01:48:49;10.57;;;9.87;;
8584;SDS011;7180;52.742;11.420;2024-03-08T01:51:15;9.87;;;9.17;;
8584;SDS011;7180;52.742;11.420;2024-03-08T01:53:41;9.97;;;9.07;;
8584;SDS011;7180;52.742;11.420;2024-03-08T01:56:10;10.57;;;9.83;;
8584;SDS011;7180;52.742;11.420;2024-03-08T01:58:37;10.03;;;9.33;;
8584;SDS011;7180;52.742;11.420;2024-03-08T02:01:03;10.23;;;9.50;;
8584;SDS011;7180;52.742;11.420;2024-03-08T02:03:29;10.37;;;9.53;;
8584;SDS011;7180;52.742;11.420;2024-03-08T02:05:56;10.47;;;9.83;;
8584;SDS011;7180;52.742;11.420;2024-03-08T02:08:24;10.40;;;9.60;;
8584;SDS011;7180;52.742;11.420;2024-03-08T02:10:49;10.40;;;9.60;;
8584;SDS011;7180;52.742;11.420;2024-03-08T02:13:15;10.73;;;9.33;;
8584;SDS011;7180;52.742;11.420;2024-03-08T02:18:19;9.80;;;9.17;;
8584;SDS011;7180;52.742;11.420;2024-03-08T02:20:54;9.67;;;9.07;;
8584;SDS011;7180;52.742;11.420;2024-03-08T02:23:21;10.93;;;10.13;;
8584;SDS011;7180;52.742;11.420;2024-03-08T02:25:48;10.27;;;9.43;;
8584;SDS011;7180;52.742;11.420;2024-03-08T02:28:14;10.13;;;9.23;;
8584;SDS011;7180;52.742;11.420;2024-03-08T02:30:39;9.83;;;9.10;;
8584;SDS011;7180;52.742;11.420;2024-03-08T02:33:05;9.80;;;9.03;;
8584;SDS011;7180;52.742;11.420;2024-03-08T02:35:32;10.20;;;9.40;;
8584;SDS011;7180;52.742;11.420;2024-03-08T02:37:57;10.00;;;9.40;;
8584;SDS011;7180;52.742;11.420;2024-03-08T02:40:23;10.33;;;9.63;;
8584;SDS011;7180;52.742;11.420;2024-03-08T02:42:48;10.30;;;9.60;;
8584;SDS011;7180;52.742;11.420;2024-03-08T02:45:14;9.80;;;9.07;;
8584;SDS011;7180;52.742;11.420;2024-03-08T02:47:39;10.00;;;9.37;;
8584;SDS011;7180;52.742;11.420;2024-03-08T02:50:05;10.20;;;9.40;;
8584;SDS011;7180;52.742;11.420;2024-03-08T02:52:33;9.27;;;8.67;;
8584;SDS011;7180;52.742;11.420;2024-03-08T02:54:58;9.57;;;8.97;;
8584;SDS011;7180;52.742;11.420;2024-03-08T02:57:23;9.77;;;9.17;;
8584;SDS011;7180;52.742;11.420;2024-03-08T02:59:49;10.67;;;9.90;;
8584;SDS011;7180;52.742;11.420;2024-03-08T03:02:15;10.00;;;9.00;;
8584;SDS011;7180;52.742;11.420;2024-03-08T03:04:41;10.23;;;9.53;;
8584;SDS011;7180;52.742;11.420;2024-03-08T03:07:06;10.23;;;9.53;;
8584;SDS011;7180;52.742;11.420;2024-03-08T03:09:32;10.17;;;9.27;;
8584;SDS011;7180;52.742;11.420;2024-03-08T03:11:58;10.50;;;9.53;;
8584;SDS011;7180;52.742;11.420;2024-03-08T03:14:23;9.97;;;9.27;;
8584;SDS011;7180;52.742;11.420;2024-03-08T03:16:49;9.53;;;8.83;;
8584;SDS011;7180;52.742;11.420;2024-03-08T03:19:14;9.90;;;9.30;;
8584;SDS011;7180;52.742;11.420;2024-03-08T03:21:40;10.53;;;9.80;;
8584;SDS011;7180;52.742;11.420;2024-03-08T03:24:08;9.57;;;8.97;;
8584;SDS011;7180;52.742;11.420;2024-03-08T03:26:35;10.67;;;9.77;;
8584;SDS011;7180;52.742;11.420;2024-03-08T03:29:03;9.80;;;9.10;;
8584;SDS011;7180;52.742;11.420;2024-03-08T03:31:30;10.40;;;9.70;;
8584;SDS011;7180;52.742;11.420;2024-03-08T03:33:56;10.40;;;9.60;;
8584;SDS011;7180;52.742;11.420;2024-03-08T03:36:26;10.00;;;9.40;;
8584;SDS011;7180;52.742;11.420;2024-03-08T03:38:52;10.37;;;9.57;;
8584;SDS011;7180;52.742;11.420;2024-03-08T03:41:29;9.37;;;8.67;;
8584;SDS011;7180;52.742;11.420;2024-03-08T03:43:54;9.83;;;9.13;;
8584;SDS011;7180;52.742;11.420;2024-03-08T03:46:20;11.13;;;10.23;;
8584;SDS011;7180;52.742;11.420;2024-03-08T03:48:45;9.97;;;9.37;;
8584;SDS011;7180;52.742;11.420;2024-03-08T03:51:11;9.43;;;8.83;;
8584;SDS011;7180;52.742;11.420;2024-03-08T03:53:36;10.27;;;9.57;;
8584;SDS011;7180;52.742;11.420;2024-03-08T03:56:02;10.00;;;9.40;;
8584;SDS011;7180;52.742;11.420;2024-03-08T03:58:27;10.23;;;9.37;;
8584;SDS011;7180;52.742;11.420;2024-03-08T04:00:52;10.87;;;9.87;;
8584;SDS011;7180;52.742;11.420;2024-03-08T04:03:18;10.17;;;9.30;;
8584;SDS011;7180;52.742;11.420;2024-03-08T04:05:43;9.50;;;8.87;;
8584;SDS011;7180;52.742;11.420;2024-03-08T04:08:10;10.17;;;9.20;;
8584;SDS011;7180;52.742;11.420;2024-03-08T04:10:35;9.50;;;8.93;;
8584;SDS011;7180;52.742;11.420;2024-03-08T04:13:00;9.53;;;8.73;;
8584;SDS011;7180;52.742;11.420;2024-03-08T04:15:25;9.27;;;8.57;;
8584;SDS011;7180;52.742;11.420;2024-03-08T04:17:51;9.50;;;8.90;;
8584;SDS011;7180;52.742;11.420;2024-03-08T04:20:16;9.07;;;8.27;;
8584;SDS011;7180;52.742;11.420;2024-03-08T04:22:42;10.20;;;9.50;;
8584;SDS011;7180;52.742;11.420;2024-03-08T04:25:09;10.03;;;9.37;;
8584;SDS011;7180;52.742;11.420;2024-03-08T04:27:35;10.50;;;9.60;;
8584;SDS011;7180;52.742;11.420;2024-03-08T04:30:01;9.10;;;8.57;;
8584;SDS011;7180;52.742;11.420;2024-03-08T04:32:26;9.77;;;8.83;;
8584;SDS011;7180;52.742;11.420;2024-03-08T04:34:54;10.33;;;9.63;;
8584;SDS011;7180;52.742;11.420;2024-03-08T04:37:19;9.43;;;8.83;;
8584;SDS011;7180;52.742;11.420;2024-03-08T04:39:48;9.27;;;8.60;;
8584;SDS011;7180;52.742;11.420;2024-03-08T04:42:13;10.37;;;9.60;;
8584;SDS011;7180;52.742;11.420;2024-03-08T04:44:40;9.60;;;8.90;;
8584;SDS011;7180;52.742;11.420;2024-03-08T04:47:05;9.03;;;8.43;;
8584;SDS011;7180;52.742;11.420;2024-03-08T04:49:31;9.67;;;9.03;;
8584;SDS011;7180;52.742;11.420;2024-03-08T04:51:59;9.87;;;9.17;;
8584;SDS011;7180;52.742;11.420;2024-03-08T04:54:28;9.07;;;8.43;;
8584;SDS011;7180;52.742;11.420;2024-03-08T04:56:54;9.77;;;9.07;;
8584;SDS011;7180;52.742;11.420;2024-03-08T04:59:19;10.77;;;9.67;;
8584;SDS011;7180;52.742;11.420;2024-03-08T05:01:44;9.93;;;9.17;;
8584;SDS011;7180;52.742;11.420;2024-03-08T05:04:10;9.90;;;9.10;;
8584;SDS011;7180;52.742;11.420;2024-03-08T05:06:35;9.90;;;9.10;;
8584;SDS011;7180;52.742;11.420;2024-03-08T05:09:01;8.83;;;8.33;;
8584;SDS011;7180;52.742;11.420;2024-03-08T05:11:38;10.37;;;9.57;;
8584;SDS011;7180;52.742;11.420;2024-03-08T05:14:07;9.87;;;9.13;;
8584;SDS011;7180;52.742;11.420;2024-03-08T05:16:33;10.27;;;9.47;;
8584;SDS011;7180;52.742;11.420;2024-03-08T05:18:58;9.80;;;9.10;;
8584;SDS011;7180;52.742;11.420;2024-03-08T05:21:24;10.30;;;9.40;;
8584;SDS011;7180;52.742;11.420;2024-03-08T05:23:50;10.47;;;9.77;;
8584;SDS011;7180;52.742;11.420;2024-03-08T05:26:15;10.57;;;9.60;;
8584;SDS011;7180;52.742;11.420;2024-03-08T05:28:41;10.47;;;9.57;;
8584;SDS011;7180;52.742;11.420;2024-03-08T05:31:06;10.07;;;9.27;;
8584;SDS011;7180;52.742;11.420;2024-03-08T05:33:31;9.47;;;8.60;;
8584;SDS011;7180;52.742;11.420;2024-03-08T05:35:59;9.07;;;8.33;;
8584;SDS011;7180;52.742;11.420;2024-03-08T05:38:25;10.47;;;9.67;;
8584;SDS011;7180;52.742;11.420;2024-03-08T05:40:51;11.03;;;10.13;;
8584;SDS011;7180;52.742;11.420;2024-03-08T05:43:16;10.70;;;9.90;;
8584;SDS011;7180;52.742;11.420;2024-03-08T05:45:44;11.17;;;10.37;;
8584;SDS011;7180;52.742;11.420;2024-03-08T05:48:10;9.80;;;9.23;;
8584;SDS011;7180;52.742;11.420;2024-03-08T05:50:37;11.03;;;10.20;;
8584;SDS011;7180;52.742;11.420;2024-03-08T05:53:03;10.23;;;9.40;;
8584;SDS011;7180;52.742;11.420;2024-03-08T05:55:31;10.77;;;9.93;;
8584;SDS011;7180;52.742;11.420;2024-03-08T05:58:00;10.93;;;10.00;;
8584;SDS011;7180;52.742;11.420;2024-03-08T06:00:27;11.30;;;10.40;;
8584;SDS011;7180;52.742;11.420;2024-03-08T06:02:53;11.13;;;10.20;;
8584;SDS011;7180;52.742;11.420;2024-03-08T06:05:18;10.87;;;10.17;;
8584;SDS011;7180;52.742;11.420;2024-03-08T06:07:43;10.43;;;9.73;;
8584;SDS011;7180;52.742;11.420;2024-03-08T06:10:09;10.90;;;10.00;;
8584;SDS011;7180;52.742;11.420;2024-03-08T06:12:35;11.47;;;10.57;;
8584;SDS011;7180;52.742;11.420;2024-03-08T06:15:05;10.87;;;10.10;;
8584;SDS011;7180;52.742;11.420;2024-03-08T06:17:31;10.73;;;10.03;;
8584;SDS011;7180;52.742;11.420;2024-03-08T06:19:56;11.67;;;10.87;;
8584;SDS011;7180;52.742;11.420;2024-03-08T06:22:22;10.63;;;9.93;;
8584;SDS011;7180;52.742;11.420;2024-03-08T06:24:47;10.53;;;9.67;;
8584;SDS011;7180;52.742;11.420;2024-03-08T06:27:12;11.17;;;10.27;;
8584;SDS011;7180;52.742;11.420;2024-03-08T06:29:38;11.00;;;10.20;;
8584;SDS011;7180;52.742;11.420;2024-03-08T06:32:04;10.33;;;9.53;;
8584;SDS011;7180;52.742;11.420;2024-03-08T06:34:32;11.53;;;10.70;;
8584;SDS011;7180;52.742;11.420;2024-03-08T06:36:59;11.63;;;10.60;;
8584;SDS011;7180;52.742;11.420;2024-03-08T06:39:25;11.13;;;10.23;;
8584;SDS011;7180;52.742;11.420;2024-03-08T06:41:51;11.57;;;10.50;;
8584;SDS011;7180;52.742;11.420;2024-03-08T06:44:16;11.27;;;10.47;;
8584;SDS011;7180;52.742;11.420;2024-03-08T06:46:41;11.27;;;10.43;;
8584;SDS011;7180;52.742;11.420;2024-03-08T06:49:07;11.70;;;10.73;;
8584;SDS011;7180;52.742;11.420;2024-03-08T06:51:34;11.67;;;10.80;;
8584;SDS011;7180;52.742;11.420;2024-03-08T06:53:59;12.83;;;11.83;;
8584;SDS011;7180;52.742;11.420;2024-03-08T06:56:25;11.97;;;11.03;;
8584;SDS011;7180;52.742;11.420;2024-03-08T06:58:50;11.47;;;10.47;;
8584;SDS011;7180;52.742;11.420;2024-03-08T07:01:15;11.93;;;11.00;;
8584;SDS011;7180;52.742;11.420;2024-03-08T07:03:42;11.90;;;10.90;;
8584;SDS011;7180;52.742;11.420;2024-03-08T07:06:10;12.40;;;11.20;;
8584;SDS011;7180;52.742;11.420;2024-03-08T07:08:36;12.70;;;11.73;;
8584;SDS011;7180;52.742;11.420;2024-03-08T07:11:01;11.83;;;10.93;;
8584;SDS011;7180;52.742;11.420;2024-03-08T07:13:27;12.67;;;11.73;;
8584;SDS011;7180;52.742;11.420;2024-03-08T07:15:55;12.90;;;11.67;;
8584;SDS011;7180;52.742;11.420;2024-03-08T07:18:20;12.00;;;10.80;;
8584;SDS011;7180;52.742;11.420;2024-03-08T07:20:47;11.77;;;10.97;;
8584;SDS011;7180;52.742;11.420;2024-03-08T07:23:12;12.03;;;11.07;;
8584;SDS011;7180;52.742;11.420;2024-03-08T07:25:57;11.60;;;10.80;;
8584;SDS011;7180;52.742;11.420;2024-03-08T07:28:23;12.47;;;11.40;;
8584;SDS011;7180;52.742;11.420;2024-03-08T07:30:48;12.80;;;11.53;;
8584;SDS011;7180;52.742;11.420;2024-03-08T07:33:13;13.10;;;12.00;;
8584;SDS011;7180;52.742;11.420;2024-03-08T07:35:39;13.17;;;11.87;;
8584;SDS011;7180;52.742;11.420;2024-03-08T07:38:05;10.83;;;10.10;;
8584;SDS011;7180;52.742;11.420;2024-03-08T07:40:35;13.00;;;12.00;;
8584;SDS011;7180;52.742;11.420;2024-03-08T07:43:01;13.43;;;12.30;;
8584;SDS011;7180;52.742;11.420;2024-03-08T07:45:27;12.77;;;11.67;;
8584;SDS011;7180;52.742;11.420;2024-03-08T07:47:53;11.93;;;11.03;;
8584;SDS011;7180;52.742;11.420;2024-03-08T07:50:18;12.13;;;11.23;;
8584;SDS011;7180;52.742;11.420;2024-03-08T07:52:44;12.30;;;11.40;;
8584;SDS011;7180;52.742;11.420;2024-03-08T07:55:09;13.27;;;11.93;;
8584;SDS011;7180;52.742;11.420;2024-03-08T07:57:35;12.87;;;11.80;;
8584;SDS011;7180;52.742;11.420;2024-03-08T08:00:02;12.73;;;11.53;;
8584;SDS011;7180;52.742;11.420;2024-03-08T08:02:32;12.53;;;11.43;;
8584;SDS011;7180;52.742;11.420;2024-03-08T08:04:57;12.40;;;11.40;;
8584;SDS011;7180;52.742;11.420;2024-03-08T08:07:24;13.63;;;12.23;;
8584;SDS011;7180;52.742;11.420;2024-03-08T08:09:49;13.07;;;11.93;;
8584;SDS011;7180;52.742;11.420;2024-03-08T08:12:14;12.53;;;11.53;;
8584;SDS011;7180;52.742;11.420;2024-03-08T08:14:40;13.83;;;12.47;;
8584;SDS011;7180;52.742;11.420;2024-03-08T08:17:06;14.70;;;13.30;;
8584;SDS011;7180;52.742;11.420;2024-03-08T08:19:33;14.03;;;12.87;;
8584;SDS011;7180;52.742;11.420;2024-03-08T08:22:00;13.10;;;12.00;;
8584;SDS011;7180;52.742;11.420;2024-03-08T08:24:26;13.40;;;12.17;;
8584;SDS011;7180;52.742;11.420;2024-03-08T08:26:52;13.77;;;12.47;;
8584;SDS011;7180;52.742;11.420;2024-03-08T08:29:17;12.93;;;11.73;;
8584;SDS011;7180;52.742;11.420;2024-03-08T08:31:43;13.57;;;12.37;;
8584;SDS011;7180;52.742;11.420;2024-03-08T08:34:11;13.07;;;11.77;;
8584;SDS011;7180;52.742;11.420;2024-03-08T08:36:37;12.47;;;11.37;;
8584;SDS011;7180;52.742;11.420;2024-03-08T08:39:05;13.43;;;12.10;;
8584;SDS011;7180;52.742;11.420;2024-03-08T08:41:37;13.30;;;11.90;;
8584;SDS011;7180;52.742;11.420;2024-03-08T08:44:02;13.10;;;11.90;;
8584;SDS011;7180;52.742;11.420;2024-03-08T08:46:28;12.10;;;11.03;;
8584;SDS011;7180;52.742;11.420;2024-03-08T08:48:53;12.53;;;11.43;;
8584;SDS011;7180;52.742;11.420;2024-03-08T08:51:19;12.60;;;11.47;;
8584;SDS011;7180;52.742;11.420;2024-03-08T08:53:44;12.93;;;11.60;;
8584;SDS011;7180;52.742;11.420;2024-03-08T08:56:10;12.37;;;11.27;;
8584;SDS011;7180;52.742;11.420;2024-03-08T08:58:37;13.20;;;12.03;;
8584;SDS011;7180;52.742;11.420;2024-03-08T09:01:04;12.43;;;11.20;;
8584;SDS011;7180;52.742;11.420;2024-03-08T09:03:30;12.13;;;11.13;;
8584;SDS011;7180;52.742;11.420;2024-03-08T09:05:55;13.10;;;11.90;;
8584;SDS011;7180;52.742;11.420;2024-03-08T09:08:21;13.20;;;11.83;;
8584;SDS011;7180;52.742;11.420;2024-03-08T09:10:46;13.30;;;12.10;;
8584;SDS011;7180;52.742;11.420;2024-03-08T09:13:13;12.20;;;11.20;;
8584;SDS011;7180;52.742;11.420;2024-03-08T09:15:38;12.37;;;11.27;;
8584;SDS011;7180;52.742;11.420;2024-03-08T09:18:05;12.10;;;11.10;;
8584;SDS011;7180;52.742;11.420;2024-03-08T09:20:31;11.97;;;10.87;;
8584;SDS011;7180;52.742;11.420;2024-03-08T09:22:56;12.73;;;11.63;;
8584;SDS011;7180;52.742;11.420;2024-03-08T09:25:22;12.53;;;11.43;;
8584;SDS011;7180;52.742;11.420;2024-03-08T09:27:47;12.70;;;11.50;;
8584;SDS011;7180;52.742;11.420;2024-03-08T09:30:13;11.50;;;10.50;;
8584;SDS011;7180;52.742;11.420;2024-03-08T09:32:40;12.17;;;11.07;;
8584;SDS011;7180;52.742;11.420;2024-03-08T09:35:06;12.17;;;11.07;;
8584;SDS011;7180;52.742;11.420;2024-03-08T09:37:32;12.77;;;11.53;;
8584;SDS011;7180;52.742;11.420;2024-03-08T09:39:58;12.33;;;11.23;;
8584;SDS011;7180;52.742;11.420;2024-03-08T09:42:24;13.53;;;11.97;;
8584;SDS011;7180;52.742;11.420;2024-03-08T09:44:50;13.13;;;12.03;;
8584;SDS011;7180;52.742;11.420;2024-03-08T09:47:15;13.70;;;12.40;;
8584;SDS011;7180;52.742;11.420;2024-03-08T09:49:42;13.00;;;11.70;;
8584;SDS011;7180;52.742;11.420;2024-03-08T09:52:08;12.20;;;11.20;;
8584;SDS011;7180;52.742;11.420;2024-03-08T09:54:35;11.97;;;11.07;;
8584;SDS011;7180;52.742;11.420;2024-03-08T09:57:00;12.53;;;11.37;;
8584;SDS011;7180;52.742;11.420;2024-03-08T09:59:29;12.30;;;11.30;;
8584;SDS011;7180;52.742;11.420;2024-03-08T10:02:03;12.27;;;11.27;;
8584;SDS011;7180;52.742;11.420;2024-03-08T10:04:29;12.17;;;11.17;;
8584;SDS011;7180;52.742;11.420;2024-03-08T10:06:58;12.23;;;11.13;;
8584;SDS011;7180;52.742;11.420;2024-03-08T10:09:24;11.23;;;10.23;;
8584;SDS011;7180;52.742;11.420;2024-03-08T10:11:53;11.30;;;10.50;;
8584;SDS011;7180;52.742;11.420;2024-03-08T10:14:21;11.63;;;10.63;;
8584;SDS011;7180;52.742;11.420;2024-03-08T10:16:46;12.87;;;11.70;;
8584;SDS011;7180;52.742;11.420;2024-03-08T10:19:11;11.63;;;10.50;;
8584;SDS011;7180;52.742;11.420;2024-03-08T10:21:47;11.80;;;10.80;;
8584;SDS011;7180;52.742;11.420;2024-03-08T10:24:14;12.17;;;11.07;;
8584;SDS011;7180;52.742;11.420;2024-03-08T10:26:39;11.80;;;10.80;;
8584;SDS011;7180;52.742;11.420;2024-03-08T10:29:04;12.57;;;11.37;;
8584;SDS011;7180;52.742;11.420;2024-03-08T10:31:29;12.13;;;11.10;;
8584;SDS011;7180;52.742;11.420;2024-03-08T10:33:58;12.50;;;11.50;;
8584;SDS011;7180;52.742;11.420;2024-03-08T10:36:23;12.07;;;11.17;;
8584;SDS011;7180;52.742;11.420;2024-03-08T10:38:49;11.80;;;10.90;;
8584;SDS011;7180;52.742;11.420;2024-03-08T10:41:18;11.07;;;10.17;;
8584;SDS011;7180;52.742;11.420;2024-03-08T10:43:52;11.77;;;10.97;;
8584;SDS011;7180;52.742;11.420;2024-03-08T10:49:19;11.47;;;10.47;;
8584;SDS011;7180;52.742;11.420;2024-03-08T10:51:50;12.60;;;11.50;;
8584;SDS011;7180;52.742;11.420;2024-03-08T10:54:17;11.87;;;10.80;;
8584;SDS011;7180;52.742;11.420;2024-03-08T10:56:44;12.30;;;11.23;;
8584;SDS011;7180;52.742;11.420;2024-03-08T10:59:11;12.67;;;11.47;;
8584;SDS011;7180;52.742;11.420;2024-03-08T11:01:38;12.40;;;11.40;;
8584;SDS011;7180;52.742;11.420;2024-03-08T11:04:04;12.63;;;11.53;;
8584;SDS011;7180;52.742;11.420;2024-03-08T11:06:31;11.60;;;10.60;;
8584;SDS011;7180;52.742;11.420;2024-03-08T11:14:53;12.30;;;11.30;;
8584;SDS011;7180;52.742;11.420;2024-03-08T11:17:53;11.07;;;10.27;;
8584;SDS011;7180;52.742;11.420;2024-03-08T11:20:17;11.17;;;10.43;;
8584;SDS011;7180;52.742;11.420;2024-03-08T11:22:49;12.73;;;11.63;;
8584;SDS011;7180;52.742;11.420;2024-03-08T11:30:46;11.23;;;10.33;;
8584;SDS011;7180;52.742;11.420;2024-03-08T11:33:34;11.07;;;10.37;;
8584;SDS011;7180;52.742;11.420;2024-03-08T11:38:39;10.93;;;10.23;;
8584;SDS011;7180;52.742;11.420;2024-03-08T11:41:05;12.90;;;11.80;;
8584;SDS011;7180;52.742;11.420;2024-03-08T11:43:30;11.67;;;10.67;;
8584;SDS011;7180;52.742;11.420;2024-03-08T11:46:07;12.13;;;11.13;;
8584;SDS011;7180;52.742;11.420;2024-03-08T11:48:33;11.43;;;10.53;;
8584;SDS011;7180;52.742;11.420;2024-03-08T11:51:00;11.70;;;10.70;;
8584;SDS011;7180;52.742;11.420;2024-03-08T11:53:26;10.90;;;10.13;;
8584;SDS011;7180;52.742;11.420;2024-03-08T11:55:52;11.53;;;10.73;;
8584;SDS011;7180;52.742;11.420;2024-03-08T11:58:17;11.57;;;10.67;;
8584;SDS011;7180;52.742;11.420;2024-03-08T12:00:43;10.97;;;10.17;;
8584;SDS011;7180;52.742;11.420;2024-03-08T12:03:11;11.53;;;10.63;;
8584;SDS011;7180;52.742;11.420;2024-03-08T12:05:37;10.97;;;10.13;;
8584;SDS011;7180;52.742;11.420;2024-03-08T12:08:03;12.13;;;11.10;;
8584;SDS011;7180;52.742;11.420;2024-03-08T12:10:30;11.50;;;10.57;;
8584;SDS011;7180;52.742;11.420;2024-03-08T12:12:56;11.70;;;10.70;;
8584;SDS011;7180;52.742;11.420;2024-03-08T12:15:26;11.83;;;10.93;;
8584;SDS011;7180;52.742;11.420;2024-03-08T12:17:53;12.20;;;11.07;;
8584;SDS011;7180;52.742;11.420;2024-03-08T12:20:24;12.33;;;11.33;;
8584;SDS011;7180;52.742;11.420;2024-03-08T12:22:52;12.43;;;11.43;;
8584;SDS011;7180;52.742;11.420;2024-03-08T12:25:18;12.93;;;11.83;;
8584;SDS011;7180;52.742;11.420;2024-03-08T12:27:45;12.63;;;11.53;;
8584;SDS011;7180;52.742;11.420;2024-03-08T12:30:45;12.27;;;11.23;;
8584;SDS011;7180;52.742;11.420;2024-03-08T12:33:10;11.77;;;10.90;;
8584;SDS011;7180;52.742;11.420;2024-03-08T12:35:37;12.70;;;11.60;;
8584;SDS011;7180;52.742;11.420;2024-03-08T12:38:03;12.07;;;10.97;;
8584;SDS011;7180;52.742;11.420;2024-03-08T12:40:31;11.40;;;10.60;;
8584;SDS011;7180;52.742;11.420;2024-03-08T12:42:59;11.80;;;10.90;;
8584;SDS011;7180;52.742;11.420;2024-03-08T12:45:25;12.77;;;11.70;;
8584;SDS011;7180;52.742;11.420;2024-03-08T12:47:50;12.70;;;11.70;;
8584;SDS011;7180;52.742;11.420;2024-03-08T12:50:16;12.60;;;11.60;;
8584;SDS011;7180;52.742;11.420;2024-03-08T12:52:43;12.20;;;11.17;;
8584;SDS011;7180;52.742;11.420;2024-03-08T12:55:08;11.93;;;11.03;;
8584;SDS011;7180;52.742;11.420;2024-03-08T12:57:34;12.73;;;11.60;;
8584;SDS011;7180;52.742;11.420;2024-03-08T13:00:02;12.13;;;11.17;;
8584;SDS011;7180;52.742;11.420;2024-03-08T13:02:29;11.57;;;10.77;;
8584;SDS011;7180;52.742;11.420;2024-03-08T13:04:55;11.17;;;10.37;;
8584;SDS011;7180;52.742;11.420;2024-03-08T13:07:22;11.17;;;10.27;;
8584;SDS011;7180;52.742;11.420;2024-03-08T13:09:50;12.17;;;11.17;;
8584;SDS011;7180;52.742;11.420;2024-03-08T13:12:17;12.37;;;11.33;;
8584;SDS011;7180;52.742;11.420;2024-03-08T13:14:42;12.00;;;11.10;;
8584;SDS011;7180;52.742;11.420;2024-03-08T13:17:07;12.10;;;11.10;;
8584;SDS011;7180;52.742;11.420;2024-03-08T13:19:36;12.63;;;11.53;;
8584;SDS011;7180;52.742;11.420;2024-03-08T13:22:03;11.77;;;10.93;;
8584;SDS011;7180;52.742;11.420;2024-03-08T13:24:32;12.33;;;11.43;;
8584;SDS011;7180;52.742;11.420;2024-03-08T13:26:58;12.37;;;11.37;;
8584;SDS011;7180;52.742;11.420;2024-03-08T13:29:24;11.93;;;10.97;;
8584;SDS011;7180;52.742;11.420;2024-03-08T13:31:50;12.27;;;11.27;;
8584;SDS011;7180;52.742;11.420;2024-03-08T13:34:17;12.20;;;11.30;;
8584;SDS011;7180;52.742;11.420;2024-03-08T13:36:43;12.10;;;11.10;;
8584;SDS011;7180;52.742;11.420;2024-03-08T13:39:10;13.03;;;11.83;;
8584;SDS011;7180;52.742;11.420;2024-03-08T13:41:41;12.27;;;11.30;;
8584;SDS011;7180;52.742;11.420;2024-03-08T13:44:06;11.63;;;10.73;;
8584;SDS011;7180;52.742;11.420;2024-03-08T13:46:32;12.97;;;11.67;;
8584;SDS011;7180;52.742;11.420;2024-03-08T13:48:57;13.20;;;11.90;;
8584;SDS011;7180;52.742;11.420;2024-03-08T13:51:34;11.80;;;11.00;;
8584;SDS011;7180;52.742;11.420;2024-03-08T13:54:00;12.00;;;11.10;;
8584;SDS011;7180;52.742;11.420;2024-03-08T13:56:25;10.97;;;10.17;;
8584;SDS011;7180;52.742;11.420;2024-03-08T13:58:51;11.83;;;10.93;;
8584;SDS011;7180;52.742;11.420;2024-03-08T14:01:17;11.80;;;10.90;;
8584;SDS011;7180;52.742;11.420;2024-03-08T14:03:42;11.20;;;10.37;;
8584;SDS011;7180;52.742;11.420;2024-03-08T14:06:08;11.33;;;10.47;;
8584;SDS011;7180;52.742;11.420;2024-03-08T14:08:34;11.07;;;10.27;;
8584;SDS011;7180;52.742;11.420;2024-03-08T14:11:02;12.10;;;11.23;;
8584;SDS011;7180;52.742;11.420;2024-03-08T14:13:35;12.00;;;11.00;;
8584;SDS011;7180;52.742;11.420;2024-03-08T14:16:00;11.57;;;10.67;;
8584;SDS011;7180;52.742;11.420;2024-03-08T14:18:26;11.87;;;10.97;;
8584;SDS011;7180;52.742;11.420;2024-03-08T14:20:51;11.73;;;10.83;;
8584;SDS011;7180;52.742;11.420;2024-03-08T14:23:16;11.60;;;10.73;;
8584;SDS011;7180;52.742;11.420;2024-03-08T14:25:42;11.90;;;11.00;;
8584;SDS011;7180;52.742;11.420;2024-03-08T14:28:07;11.67;;;10.67;;
8584;SDS011;7180;52.742;11.420;2024-03-08T14:30:33;11.83;;;10.90;;
8584;SDS011;7180;52.742;11.420;2024-03-08T14:33:06;12.20;;;11.30;;
8584;SDS011;7180;52.742;11.420;2024-03-08T14:35:34;11.63;;;10.73;;
8584;SDS011;7180;52.742;11.420;2024-03-08T14:38:02;12.50;;;11.30;;
8584;SDS011;7180;52.742;11.420;2024-03-08T14:40:28;11.93;;;10.97;;
8584;SDS011;7180;52.742;11.420;2024-03-08T14:42:55;11.03;;;10.23;;
8584;SDS011;7180;52.742;11.420;2024-03-08T14:45:21;11.47;;;10.60;;
8584;SDS011;7180;52.742;11.420;2024-03-08T14:47:47;11.47;;;10.47;;
8584;SDS011;7180;52.742;11.420;2024-03-08T14:50:16;11.73;;;10.80;;
8584;SDS011;7180;52.742;11.420;2024-03-08T14:52:45;11.97;;;10.97;;
8584;SDS011;7180;52.742;11.420;2024-03-08T14:55:17;12.53;;;11.40;;
8584;SDS011;7180;52.742;11.420;2024-03-08T14:57:44;12.07;;;10.97;;